Terminal Aerodrome Forecast
Issued by NWS

Home | Current Version | Previous Version | Graphics & Text | Print | Product List | Glossary On
Versions: 1 2 3 4 5 6 7 8 9 10 11 12 13 14
000
FTUS42 KMHX 210100 AAA
TAFPGV
TAF AMD
KPGV 210107Z 2101/2124 02016G19KT P6SM SCT025 OVC035
     FM210400 02008G15KT P6SM OVC100
     FM210700 36010KT P6SM SCT050 BKN250
     FM211300 01010G18KT P6SM SCT250
      AMD LTD TO CLD VIS AND WIND=

USA.gov is the U.S. government's official web portal to all federal, state and local government web resources and services.